sensor_id;sensor_type;location;lat;lon;timestamp;P1;durP1;ratioP1;P2;durP2;ratioP2
64643;SDS011;51056;50.330;7.914;2022-11-20T00:02:53;11.68;;;10.48;;
64643;SDS011;51056;50.330;7.914;2022-11-20T00:06:04;11.82;;;10.02;;
64643;SDS011;51056;50.330;7.914;2022-11-20T00:09:09;14.07;;;11.05;;
64643;SDS011;51056;50.330;7.914;2022-11-20T00:12:12;12.20;;;10.00;;
64643;SDS011;51056;50.330;7.914;2022-11-20T00:15:16;12.90;;;10.20;;
64643;SDS011;51056;50.330;7.914;2022-11-20T00:18:22;13.63;;;11.50;;
64643;SDS011;51056;50.330;7.914;2022-11-20T00:21:27;13.10;;;11.05;;
64643;SDS011;51056;50.330;7.914;2022-11-20T00:24:31;15.27;;;12.57;;
64643;SDS011;51056;50.330;7.914;2022-11-20T00:30:44;14.38;;;11.63;;
64643;SDS011;51056;50.330;7.914;2022-11-20T00:33:48;16.23;;;12.05;;
64643;SDS011;51056;50.330;7.914;2022-11-20T00:36:54;14.23;;;11.73;;
64643;SDS011;51056;50.330;7.914;2022-11-20T00:39:57;14.30;;;12.50;;
64643;SDS011;51056;50.330;7.914;2022-11-20T00:43:00;15.18;;;12.20;;
64643;SDS011;51056;50.330;7.914;2022-11-20T00:46:06;13.43;;;10.68;;
64643;SDS011;51056;50.330;7.914;2022-11-20T00:49:11;16.13;;;11.38;;
64643;SDS011;51056;50.330;7.914;2022-11-20T00:52:14;13.57;;;11.27;;
64643;SDS011;51056;50.330;7.914;2022-11-20T00:55:17;14.43;;;11.55;;
64643;SDS011;51056;50.330;7.914;2022-11-20T01:01:24;11.63;;;10.35;;
64643;SDS011;51056;50.330;7.914;2022-11-20T01:04:33;15.38;;;12.68;;
64643;SDS011;51056;50.330;7.914;2022-11-20T01:07:36;16.88;;;12.18;;
64643;SDS011;51056;50.330;7.914;2022-11-20T01:10:40;14.30;;;11.70;;
64643;SDS011;51056;50.330;7.914;2022-11-20T01:13:53;17.33;;;13.13;;
64643;SDS011;51056;50.330;7.914;2022-11-20T01:16:58;21.25;;;15.13;;
64643;SDS011;51056;50.330;7.914;2022-11-20T01:20:01;20.30;;;14.38;;
64643;SDS011;51056;50.330;7.914;2022-11-20T01:23:05;14.95;;;12.70;;
64643;SDS011;51056;50.330;7.914;2022-11-20T01:26:09;15.85;;;12.07;;
64643;SDS011;51056;50.330;7.914;2022-11-20T01:29:16;14.80;;;12.38;;
64643;SDS011;51056;50.330;7.914;2022-11-20T01:32:21;14.55;;;12.40;;
64643;SDS011;51056;50.330;7.914;2022-11-20T01:35:24;14.50;;;11.43;;
64643;SDS011;51056;50.330;7.914;2022-11-20T01:38:28;13.30;;;10.98;;
64643;SDS011;51056;50.330;7.914;2022-11-20T01:41:33;16.13;;;11.93;;
64643;SDS011;51056;50.330;7.914;2022-11-20T01:44:57;13.60;;;11.15;;
64643;SDS011;51056;50.330;7.914;2022-11-20T01:48:02;14.30;;;11.68;;
64643;SDS011;51056;50.330;7.914;2022-11-20T01:51:06;13.40;;;11.70;;
64643;SDS011;51056;50.330;7.914;2022-11-20T01:54:21;13.85;;;11.77;;
64643;SDS011;51056;50.330;7.914;2022-11-20T01:57:34;15.40;;;12.57;;
64643;SDS011;51056;50.330;7.914;2022-11-20T02:00:40;13.98;;;11.98;;
64643;SDS011;51056;50.330;7.914;2022-11-20T02:03:43;14.82;;;12.63;;
64643;SDS011;51056;50.330;7.914;2022-11-20T02:06:59;15.15;;;12.77;;
64643;SDS011;51056;50.330;7.914;2022-11-20T02:10:05;15.00;;;12.82;;
64643;SDS011;51056;50.330;7.914;2022-11-20T02:13:12;14.55;;;11.90;;
64643;SDS011;51056;50.330;7.914;2022-11-20T02:16:35;17.40;;;12.70;;
64643;SDS011;51056;50.330;7.914;2022-11-20T02:19:42;14.13;;;12.60;;
64643;SDS011;51056;50.330;7.914;2022-11-20T02:22:50;16.13;;;12.10;;
64643;SDS011;51056;50.330;7.914;2022-11-20T02:26:00;15.23;;;11.65;;
64643;SDS011;51056;50.330;7.914;2022-11-20T02:29:07;17.10;;;13.45;;
64643;SDS011;51056;50.330;7.914;2022-11-20T02:32:21;15.88;;;12.73;;
64643;SDS011;51056;50.330;7.914;2022-11-20T02:41:36;15.88;;;12.93;;
64643;SDS011;51056;50.330;7.914;2022-11-20T02:44:43;13.15;;;11.45;;
64643;SDS011;51056;50.330;7.914;2022-11-20T02:50:49;14.50;;;12.13;;
64643;SDS011;51056;50.330;7.914;2022-11-20T02:53:53;14.88;;;12.20;;
64643;SDS011;51056;50.330;7.914;2022-11-20T03:00:00;14.00;;;11.40;;
64643;SDS011;51056;50.330;7.914;2022-11-20T03:03:03;13.77;;;11.93;;
64643;SDS011;51056;50.330;7.914;2022-11-20T03:06:07;16.02;;;13.35;;
64643;SDS011;51056;50.330;7.914;2022-11-20T03:09:10;13.65;;;12.18;;
64643;SDS011;51056;50.330;7.914;2022-11-20T03:12:17;15.43;;;11.90;;
64643;SDS011;51056;50.330;7.914;2022-11-20T03:18:23;14.60;;;12.40;;
64643;SDS011;51056;50.330;7.914;2022-11-20T03:21:27;14.73;;;12.10;;
64643;SDS011;51056;50.330;7.914;2022-11-20T03:27:34;15.05;;;12.15;;
64643;SDS011;51056;50.330;7.914;2022-11-20T03:30:38;15.40;;;12.93;;
64643;SDS011;51056;50.330;7.914;2022-11-20T03:33:41;14.95;;;13.25;;
64643;SDS011;51056;50.330;7.914;2022-11-20T03:36:45;14.82;;;12.70;;
64643;SDS011;51056;50.330;7.914;2022-11-20T03:42:51;14.40;;;12.38;;
64643;SDS011;51056;50.330;7.914;2022-11-20T03:45:55;14.90;;;12.15;;
64643;SDS011;51056;50.330;7.914;2022-11-20T03:48:59;15.60;;;12.32;;
64643;SDS011;51056;50.330;7.914;2022-11-20T03:52:03;16.77;;;14.00;;
64643;SDS011;51056;50.330;7.914;2022-11-20T03:55:07;17.40;;;13.68;;
64643;SDS011;51056;50.330;7.914;2022-11-20T03:58:11;15.25;;;13.18;;
64643;SDS011;51056;50.330;7.914;2022-11-20T04:01:18;15.43;;;13.18;;
64643;SDS011;51056;50.330;7.914;2022-11-20T04:04:27;15.10;;;12.68;;
64643;SDS011;51056;50.330;7.914;2022-11-20T04:10:34;15.77;;;13.38;;
64643;SDS011;51056;50.330;7.914;2022-11-20T04:13:38;17.80;;;14.00;;
64643;SDS011;51056;50.330;7.914;2022-11-20T04:16:41;17.65;;;13.85;;
64643;SDS011;51056;50.330;7.914;2022-11-20T04:19:45;20.10;;;14.82;;
64643;SDS011;51056;50.330;7.914;2022-11-20T04:22:48;19.23;;;14.00;;
64643;SDS011;51056;50.330;7.914;2022-11-20T04:25:52;20.60;;;15.60;;
64643;SDS011;51056;50.330;7.914;2022-11-20T04:28:57;23.13;;;14.55;;
64643;SDS011;51056;50.330;7.914;2022-11-20T04:32:01;22.40;;;14.70;;
64643;SDS011;51056;50.330;7.914;2022-11-20T04:35:05;20.65;;;14.73;;
64643;SDS011;51056;50.330;7.914;2022-11-20T04:38:09;19.20;;;15.68;;
64643;SDS011;51056;50.330;7.914;2022-11-20T04:44:18;19.42;;;13.90;;
64643;SDS011;51056;50.330;7.914;2022-11-20T04:47:21;19.63;;;15.20;;
64643;SDS011;51056;50.330;7.914;2022-11-20T04:50:24;22.08;;;15.70;;
64643;SDS011;51056;50.330;7.914;2022-11-20T04:53:28;23.55;;;17.73;;
64643;SDS011;51056;50.330;7.914;2022-11-20T04:59:38;21.83;;;15.07;;
64643;SDS011;51056;50.330;7.914;2022-11-20T05:02:42;22.13;;;16.08;;
64643;SDS011;51056;50.330;7.914;2022-11-20T05:05:46;18.83;;;14.27;;
64643;SDS011;51056;50.330;7.914;2022-11-20T05:11:52;23.57;;;17.30;;
64643;SDS011;51056;50.330;7.914;2022-11-20T05:14:56;21.67;;;15.35;;
64643;SDS011;51056;50.330;7.914;2022-11-20T05:17:59;22.70;;;16.27;;
64643;SDS011;51056;50.330;7.914;2022-11-20T05:21:03;28.65;;;18.40;;
64643;SDS011;51056;50.330;7.914;2022-11-20T05:24:07;26.88;;;17.45;;
64643;SDS011;51056;50.330;7.914;2022-11-20T05:30:13;21.63;;;16.35;;
64643;SDS011;51056;50.330;7.914;2022-11-20T05:33:17;26.73;;;20.30;;
64643;SDS011;51056;50.330;7.914;2022-11-20T05:36:20;22.83;;;17.25;;
64643;SDS011;51056;50.330;7.914;2022-11-20T05:39:26;29.20;;;17.35;;
64643;SDS011;51056;50.330;7.914;2022-11-20T05:45:35;23.45;;;16.52;;
64643;SDS011;51056;50.330;7.914;2022-11-20T05:48:39;25.15;;;17.90;;
64643;SDS011;51056;50.330;7.914;2022-11-20T05:51:49;24.25;;;18.13;;
64643;SDS011;51056;50.330;7.914;2022-11-20T05:58:01;26.35;;;17.98;;
64643;SDS011;51056;50.330;7.914;2022-11-20T06:01:12;25.58;;;18.02;;
64643;SDS011;51056;50.330;7.914;2022-11-20T06:04:20;26.52;;;18.95;;
64643;SDS011;51056;50.330;7.914;2022-11-20T06:07:23;27.67;;;18.33;;
64643;SDS011;51056;50.330;7.914;2022-11-20T06:10:27;26.60;;;18.30;;
64643;SDS011;51056;50.330;7.914;2022-11-20T06:13:30;22.52;;;17.20;;
64643;SDS011;51056;50.330;7.914;2022-11-20T06:19:37;24.02;;;17.02;;
64643;SDS011;51056;50.330;7.914;2022-11-20T06:22:40;26.67;;;18.25;;
64643;SDS011;51056;50.330;7.914;2022-11-20T06:25:46;27.23;;;19.75;;
64643;SDS011;51056;50.330;7.914;2022-11-20T06:31:57;24.20;;;17.30;;
64643;SDS011;51056;50.330;7.914;2022-11-20T06:35:01;24.52;;;17.98;;
64643;SDS011;51056;50.330;7.914;2022-11-20T06:38:04;29.20;;;19.52;;
64643;SDS011;51056;50.330;7.914;2022-11-20T06:41:13;27.05;;;18.45;;
64643;SDS011;51056;50.330;7.914;2022-11-20T06:44:20;26.38;;;19.75;;
64643;SDS011;51056;50.330;7.914;2022-11-20T06:47:26;26.40;;;19.77;;
64643;SDS011;51056;50.330;7.914;2022-11-20T06:50:30;30.33;;;20.20;;
64643;SDS011;51056;50.330;7.914;2022-11-20T06:56:37;33.10;;;21.02;;
64643;SDS011;51056;50.330;7.914;2022-11-20T06:59:40;28.83;;;21.05;;
64643;SDS011;51056;50.330;7.914;2022-11-20T07:02:43;32.15;;;22.02;;
64643;SDS011;51056;50.330;7.914;2022-11-20T07:05:47;30.88;;;21.58;;
64643;SDS011;51056;50.330;7.914;2022-11-20T07:11:55;33.60;;;21.52;;
64643;SDS011;51056;50.330;7.914;2022-11-20T07:18:01;29.00;;;19.10;;
64643;SDS011;51056;50.330;7.914;2022-11-20T07:24:09;30.00;;;19.95;;
64643;SDS011;51056;50.330;7.914;2022-11-20T07:27:13;27.92;;;19.30;;
64643;SDS011;51056;50.330;7.914;2022-11-20T07:30:17;31.85;;;21.25;;
64643;SDS011;51056;50.330;7.914;2022-11-20T07:33:21;29.58;;;21.85;;
64643;SDS011;51056;50.330;7.914;2022-11-20T07:36:24;32.20;;;21.65;;
64643;SDS011;51056;50.330;7.914;2022-11-20T07:39:28;27.40;;;19.85;;
64643;SDS011;51056;50.330;7.914;2022-11-20T07:45:34;30.33;;;18.90;;
64643;SDS011;51056;50.330;7.914;2022-11-20T07:48:39;30.92;;;19.67;;
64643;SDS011;51056;50.330;7.914;2022-11-20T07:51:43;41.72;;;24.48;;
64643;SDS011;51056;50.330;7.914;2022-11-20T07:54:46;29.77;;;22.42;;
64643;SDS011;51056;50.330;7.914;2022-11-20T07:57:53;25.98;;;18.65;;
64643;SDS011;51056;50.330;7.914;2022-11-20T08:01:02;31.63;;;22.70;;
64643;SDS011;51056;50.330;7.914;2022-11-20T08:04:10;27.95;;;20.70;;
64643;SDS011;51056;50.330;7.914;2022-11-20T08:07:14;30.88;;;20.77;;
64643;SDS011;51056;50.330;7.914;2022-11-20T08:10:17;30.60;;;20.75;;
64643;SDS011;51056;50.330;7.914;2022-11-20T08:13:20;28.05;;;20.63;;
64643;SDS011;51056;50.330;7.914;2022-11-20T08:16:43;31.45;;;22.83;;
64643;SDS011;51056;50.330;7.914;2022-11-20T08:19:48;28.38;;;20.27;;
64643;SDS011;51056;50.330;7.914;2022-11-20T08:22:51;35.47;;;23.48;;
64643;SDS011;51056;50.330;7.914;2022-11-20T08:28:58;28.20;;;20.52;;
64643;SDS011;51056;50.330;7.914;2022-11-20T08:32:06;33.90;;;22.90;;
64643;SDS011;51056;50.330;7.914;2022-11-20T08:35:10;35.78;;;22.30;;
64643;SDS011;51056;50.330;7.914;2022-11-20T08:38:14;32.20;;;22.27;;
64643;SDS011;51056;50.330;7.914;2022-11-20T08:41:18;32.70;;;21.02;;
64643;SDS011;51056;50.330;7.914;2022-11-20T08:44:28;31.60;;;21.38;;
64643;SDS011;51056;50.330;7.914;2022-11-20T08:47:31;48.30;;;35.72;;
64643;SDS011;51056;50.330;7.914;2022-11-20T08:50:34;38.38;;;26.02;;
64643;SDS011;51056;50.330;7.914;2022-11-20T08:53:38;31.48;;;20.80;;
64643;SDS011;51056;50.330;7.914;2022-11-20T08:56:42;31.17;;;21.45;;
64643;SDS011;51056;50.330;7.914;2022-11-20T08:59:45;33.58;;;23.02;;
64643;SDS011;51056;50.330;7.914;2022-11-20T09:02:48;30.10;;;21.73;;
64643;SDS011;51056;50.330;7.914;2022-11-20T09:05:56;33.60;;;21.55;;
64643;SDS011;51056;50.330;7.914;2022-11-20T09:09:09;31.88;;;22.35;;
64643;SDS011;51056;50.330;7.914;2022-11-20T09:12:12;31.02;;;20.83;;
64643;SDS011;51056;50.330;7.914;2022-11-20T09:18:19;33.15;;;22.50;;
64643;SDS011;51056;50.330;7.914;2022-11-20T09:21:23;31.50;;;20.85;;
64643;SDS011;51056;50.330;7.914;2022-11-20T09:24:27;30.63;;;20.83;;
64643;SDS011;51056;50.330;7.914;2022-11-20T09:30:34;31.13;;;21.73;;
64643;SDS011;51056;50.330;7.914;2022-11-20T09:33:38;32.80;;;23.08;;
64643;SDS011;51056;50.330;7.914;2022-11-20T09:41:02;29.90;;;20.88;;
64643;SDS011;51056;50.330;7.914;2022-11-20T09:44:12;27.95;;;20.00;;
64643;SDS011;51056;50.330;7.914;2022-11-20T09:54:31;32.47;;;21.48;;
64643;SDS011;51056;50.330;7.914;2022-11-20T09:57:40;31.45;;;21.80;;
64643;SDS011;51056;50.330;7.914;2022-11-20T10:00:47;28.25;;;20.10;;
64643;SDS011;51056;50.330;7.914;2022-11-20T10:04:15;25.77;;;18.58;;
64643;SDS011;51056;50.330;7.914;2022-11-20T10:07:22;31.20;;;20.50;;
64643;SDS011;51056;50.330;7.914;2022-11-20T10:10:46;31.38;;;22.45;;
64643;SDS011;51056;50.330;7.914;2022-11-20T10:17:06;27.30;;;20.00;;
64643;SDS011;51056;50.330;7.914;2022-11-20T10:27:15;27.40;;;19.38;;
64643;SDS011;51056;50.330;7.914;2022-11-20T10:30:34;29.23;;;19.23;;
64643;SDS011;51056;50.330;7.914;2022-11-20T10:33:44;27.45;;;19.73;;
64643;SDS011;51056;50.330;7.914;2022-11-20T10:36:56;41.88;;;19.70;;
64643;SDS011;51056;50.330;7.914;2022-11-20T10:43:26;25.73;;;18.85;;
64643;SDS011;51056;50.330;7.914;2022-11-20T10:46:44;23.70;;;17.70;;
64643;SDS011;51056;50.330;7.914;2022-11-20T10:49:48;30.40;;;21.27;;
64643;SDS011;51056;50.330;7.914;2022-11-20T10:53:00;25.83;;;19.63;;
64643;SDS011;51056;50.330;7.914;2022-11-20T11:03:20;23.92;;;17.65;;
64643;SDS011;51056;50.330;7.914;2022-11-20T11:06:35;24.15;;;19.52;;
64643;SDS011;51056;50.330;7.914;2022-11-20T11:09:46;24.60;;;17.08;;
64643;SDS011;51056;50.330;7.914;2022-11-20T11:12:51;25.73;;;17.70;;
64643;SDS011;51056;50.330;7.914;2022-11-20T11:15:55;25.42;;;19.30;;
64643;SDS011;51056;50.330;7.914;2022-11-20T11:22:16;20.63;;;16.73;;
64643;SDS011;51056;50.330;7.914;2022-11-20T11:25:22;20.70;;;15.40;;
64643;SDS011;51056;50.330;7.914;2022-11-20T11:28:33;20.23;;;16.02;;
64643;SDS011;51056;50.330;7.914;2022-11-20T11:31:37;20.20;;;15.50;;
64643;SDS011;51056;50.330;7.914;2022-11-20T11:34:40;18.83;;;13.75;;
64643;SDS011;51056;50.330;7.914;2022-11-20T11:37:44;20.33;;;15.38;;
64643;SDS011;51056;50.330;7.914;2022-11-20T11:40:52;18.67;;;14.77;;
64643;SDS011;51056;50.330;7.914;2022-11-20T11:44:01;17.65;;;13.48;;
64643;SDS011;51056;50.330;7.914;2022-11-20T11:50:50;17.08;;;12.88;;
64643;SDS011;51056;50.330;7.914;2022-11-20T11:53:54;16.77;;;13.38;;
64643;SDS011;51056;50.330;7.914;2022-11-20T11:57:03;16.45;;;12.93;;
64643;SDS011;51056;50.330;7.914;2022-11-20T12:00:14;18.30;;;14.55;;
64643;SDS011;51056;50.330;7.914;2022-11-20T12:03:20;17.42;;;13.95;;
64643;SDS011;51056;50.330;7.914;2022-11-20T12:06:30;18.73;;;14.13;;
64643;SDS011;51056;50.330;7.914;2022-11-20T12:09:37;17.30;;;13.52;;
64643;SDS011;51056;50.330;7.914;2022-11-20T12:12:48;18.10;;;13.75;;
64643;SDS011;51056;50.330;7.914;2022-11-20T12:15:57;16.80;;;12.80;;
64643;SDS011;51056;50.330;7.914;2022-11-20T12:19:04;14.48;;;11.85;;
64643;SDS011;51056;50.330;7.914;2022-11-20T12:25:42;15.50;;;12.07;;
64643;SDS011;51056;50.330;7.914;2022-11-20T12:42:32;17.02;;;14.25;;
64643;SDS011;51056;50.330;7.914;2022-11-20T12:49:41;16.73;;;11.77;;
64643;SDS011;51056;50.330;7.914;2022-11-20T12:53:06;16.23;;;12.82;;
64643;SDS011;51056;50.330;7.914;2022-11-20T12:56:25;14.82;;;11.63;;
64643;SDS011;51056;50.330;7.914;2022-11-20T13:00:14;18.42;;;13.05;;
64643;SDS011;51056;50.330;7.914;2022-11-20T13:06:35;15.40;;;11.85;;
64643;SDS011;51056;50.330;7.914;2022-11-20T13:09:46;15.60;;;12.50;;
64643;SDS011;51056;50.330;7.914;2022-11-20T13:12:54;14.68;;;11.60;;
64643;SDS011;51056;50.330;7.914;2022-11-20T13:16:05;15.45;;;12.48;;
64643;SDS011;51056;50.330;7.914;2022-11-20T13:19:15;17.65;;;12.77;;
64643;SDS011;51056;50.330;7.914;2022-11-20T13:22:24;13.45;;;10.65;;
64643;SDS011;51056;50.330;7.914;2022-11-20T13:25:48;14.98;;;12.38;;
64643;SDS011;51056;50.330;7.914;2022-11-20T13:29:16;19.33;;;13.98;;
64643;SDS011;51056;50.330;7.914;2022-11-20T13:32:31;13.30;;;10.75;;
64643;SDS011;51056;50.330;7.914;2022-11-20T13:35:37;16.35;;;11.90;;
64643;SDS011;51056;50.330;7.914;2022-11-20T13:38:51;16.17;;;11.82;;
64643;SDS011;51056;50.330;7.914;2022-11-20T13:41:57;15.38;;;10.82;;
64643;SDS011;51056;50.330;7.914;2022-11-20T13:45:08;15.73;;;11.60;;
64643;SDS011;51056;50.330;7.914;2022-11-20T13:48:20;14.75;;;10.65;;
64643;SDS011;51056;50.330;7.914;2022-11-20T13:51:37;13.98;;;10.82;;
64643;SDS011;51056;50.330;7.914;2022-11-20T14:01:24;14.05;;;10.85;;
64643;SDS011;51056;50.330;7.914;2022-11-20T14:04:35;15.32;;;11.90;;
64643;SDS011;51056;50.330;7.914;2022-11-20T14:07:50;15.18;;;10.70;;
64643;SDS011;51056;50.330;7.914;2022-11-20T14:11:14;15.43;;;11.00;;
64643;SDS011;51056;50.330;7.914;2022-11-20T14:14:20;15.05;;;11.20;;
64643;SDS011;51056;50.330;7.914;2022-11-20T14:17:33;12.70;;;10.65;;
64643;SDS011;51056;50.330;7.914;2022-11-20T14:20:42;15.73;;;11.63;;
64643;SDS011;51056;50.330;7.914;2022-11-20T14:23:48;14.82;;;11.15;;
64643;SDS011;51056;50.330;7.914;2022-11-20T14:26:53;17.17;;;12.18;;
64643;SDS011;51056;50.330;7.914;2022-11-20T14:30:01;17.33;;;12.15;;
64643;SDS011;51056;50.330;7.914;2022-11-20T14:33:05;19.02;;;12.32;;
64643;SDS011;51056;50.330;7.914;2022-11-20T14:36:15;18.92;;;14.25;;
64643;SDS011;51056;50.330;7.914;2022-11-20T14:39:21;19.65;;;14.60;;
64643;SDS011;51056;50.330;7.914;2022-11-20T14:42:33;19.60;;;15.60;;
64643;SDS011;51056;50.330;7.914;2022-11-20T14:45:37;22.83;;;17.40;;
64643;SDS011;51056;50.330;7.914;2022-11-20T14:48:51;21.92;;;16.73;;
64643;SDS011;51056;50.330;7.914;2022-11-20T14:52:20;21.73;;;17.00;;
64643;SDS011;51056;50.330;7.914;2022-11-20T14:55:35;20.83;;;16.38;;
64643;SDS011;51056;50.330;7.914;2022-11-20T14:58:41;21.42;;;16.75;;
64643;SDS011;51056;50.330;7.914;2022-11-20T15:04:57;22.00;;;15.80;;
64643;SDS011;51056;50.330;7.914;2022-11-20T15:08:06;28.38;;;17.33;;
64643;SDS011;51056;50.330;7.914;2022-11-20T15:11:18;25.38;;;16.70;;
64643;SDS011;51056;50.330;7.914;2022-11-20T15:14:26;21.45;;;15.27;;
64643;SDS011;51056;50.330;7.914;2022-11-20T15:17:32;22.95;;;15.95;;
64643;SDS011;51056;50.330;7.914;2022-11-20T15:20:37;25.08;;;16.88;;
64643;SDS011;51056;50.330;7.914;2022-11-20T15:23:42;26.45;;;19.73;;
64643;SDS011;51056;50.330;7.914;2022-11-20T15:26:46;25.08;;;18.10;;
64643;SDS011;51056;50.330;7.914;2022-11-20T15:29:50;26.75;;;18.30;;
64643;SDS011;51056;50.330;7.914;2022-11-20T15:32:58;21.77;;;16.77;;
64643;SDS011;51056;50.330;7.914;2022-11-20T15:36:02;25.50;;;19.13;;
64643;SDS011;51056;50.330;7.914;2022-11-20T15:39:06;24.55;;;18.55;;
64643;SDS011;51056;50.330;7.914;2022-11-20T15:42:15;26.40;;;19.35;;
64643;SDS011;51056;50.330;7.914;2022-11-20T15:45:23;25.85;;;18.45;;
64643;SDS011;51056;50.330;7.914;2022-11-20T15:48:28;28.27;;;19.60;;
64643;SDS011;51056;50.330;7.914;2022-11-20T15:51:36;28.13;;;18.92;;
64643;SDS011;51056;50.330;7.914;2022-11-20T15:54:41;27.88;;;19.02;;
64643;SDS011;51056;50.330;7.914;2022-11-20T15:57:46;27.10;;;19.67;;
64643;SDS011;51056;50.330;7.914;2022-11-20T16:00:50;30.00;;;18.85;;
64643;SDS011;51056;50.330;7.914;2022-11-20T16:03:53;25.88;;;18.50;;
64643;SDS011;51056;50.330;7.914;2022-11-20T16:06:57;28.80;;;20.83;;
64643;SDS011;51056;50.330;7.914;2022-11-20T16:13:14;28.73;;;19.92;;
64643;SDS011;51056;50.330;7.914;2022-11-20T16:16:39;30.00;;;20.58;;
64643;SDS011;51056;50.330;7.914;2022-11-20T16:19:44;26.33;;;19.70;;
64643;SDS011;51056;50.330;7.914;2022-11-20T16:25:51;23.90;;;17.80;;
64643;SDS011;51056;50.330;7.914;2022-11-20T16:28:54;22.90;;;17.13;;
64643;SDS011;51056;50.330;7.914;2022-11-20T16:31:59;25.33;;;18.20;;
64643;SDS011;51056;50.330;7.914;2022-11-20T16:35:07;21.55;;;16.98;;
64643;SDS011;51056;50.330;7.914;2022-11-20T16:38:12;24.23;;;17.50;;
64643;SDS011;51056;50.330;7.914;2022-11-20T16:41:16;26.63;;;19.13;;
64643;SDS011;51056;50.330;7.914;2022-11-20T16:44:20;30.13;;;21.38;;
64643;SDS011;51056;50.330;7.914;2022-11-20T16:47:23;25.67;;;17.95;;
64643;SDS011;51056;50.330;7.914;2022-11-20T16:53:30;25.83;;;17.98;;
64643;SDS011;51056;50.330;7.914;2022-11-20T16:56:36;24.02;;;17.20;;
64643;SDS011;51056;50.330;7.914;2022-11-20T16:59:39;24.67;;;18.33;;
64643;SDS011;51056;50.330;7.914;2022-11-20T17:02:43;21.95;;;16.25;;
64643;SDS011;51056;50.330;7.914;2022-11-20T17:05:47;27.40;;;18.45;;
64643;SDS011;51056;50.330;7.914;2022-11-20T17:08:52;28.65;;;21.15;;
64643;SDS011;51056;50.330;7.914;2022-11-20T17:12:00;25.13;;;18.73;;
64643;SDS011;51056;50.330;7.914;2022-11-20T17:18:07;27.40;;;17.75;;
64643;SDS011;51056;50.330;7.914;2022-11-20T17:24:15;24.90;;;17.63;;
64643;SDS011;51056;50.330;7.914;2022-11-20T17:27:19;20.27;;;15.93;;
64643;SDS011;51056;50.330;7.914;2022-11-20T17:30:23;24.63;;;16.65;;
64643;SDS011;51056;50.330;7.914;2022-11-20T17:33:27;22.45;;;17.20;;
64643;SDS011;51056;50.330;7.914;2022-11-20T17:36:31;24.17;;;18.23;;
64643;SDS011;51056;50.330;7.914;2022-11-20T17:39:34;23.58;;;16.38;;
64643;SDS011;51056;50.330;7.914;2022-11-20T17:42:39;21.23;;;16.38;;
64643;SDS011;51056;50.330;7.914;2022-11-20T17:45:42;20.90;;;15.73;;
64643;SDS011;51056;50.330;7.914;2022-11-20T17:48:48;21.85;;;15.98;;
64643;SDS011;51056;50.330;7.914;2022-11-20T17:51:52;26.30;;;16.52;;
64643;SDS011;51056;50.330;7.914;2022-11-20T17:54:55;23.95;;;16.17;;
64643;SDS011;51056;50.330;7.914;2022-11-20T17:58:00;20.77;;;15.93;;
64643;SDS011;51056;50.330;7.914;2022-11-20T18:01:09;20.42;;;16.20;;
64643;SDS011;51056;50.330;7.914;2022-11-20T18:04:16;25.27;;;17.58;;
64643;SDS011;51056;50.330;7.914;2022-11-20T18:07:19;20.48;;;15.80;;
64643;SDS011;51056;50.330;7.914;2022-11-20T18:10:23;18.85;;;15.15;;
64643;SDS011;51056;50.330;7.914;2022-11-20T18:13:31;20.30;;;15.27;;
64643;SDS011;51056;50.330;7.914;2022-11-20T18:16:57;20.63;;;16.13;;
64643;SDS011;51056;50.330;7.914;2022-11-20T18:20:06;20.77;;;15.90;;
64643;SDS011;51056;50.330;7.914;2022-11-20T18:23:14;20.63;;;15.23;;
64643;SDS011;51056;50.330;7.914;2022-11-20T18:26:18;25.80;;;17.58;;
64643;SDS011;51056;50.330;7.914;2022-11-20T18:29:22;19.27;;;14.13;;
64643;SDS011;51056;50.330;7.914;2022-11-20T18:32:26;20.35;;;14.18;;
64643;SDS011;51056;50.330;7.914;2022-11-20T18:35:30;20.77;;;14.20;;
64643;SDS011;51056;50.330;7.914;2022-11-20T18:41:37;28.55;;;21.10;;
64643;SDS011;51056;50.330;7.914;2022-11-20T18:45:03;21.60;;;16.90;;
64643;SDS011;51056;50.330;7.914;2022-11-20T18:48:10;23.10;;;15.52;;
64643;SDS011;51056;50.330;7.914;2022-11-20T18:51:13;17.85;;;13.80;;
64643;SDS011;51056;50.330;7.914;2022-11-20T18:54:17;20.65;;;14.88;;
64643;SDS011;51056;50.330;7.914;2022-11-20T18:57:22;15.25;;;8.73;;
64643;SDS011;51056;50.330;7.914;2022-11-20T19:00:27;17.63;;;12.20;;
64643;SDS011;51056;50.330;7.914;2022-11-20T19:06:34;32.95;;;26.75;;
64643;SDS011;51056;50.330;7.914;2022-11-20T19:09:39;39.13;;;28.88;;
64643;SDS011;51056;50.330;7.914;2022-11-20T19:12:43;17.25;;;14.57;;
64643;SDS011;51056;50.330;7.914;2022-11-20T19:15:47;56.38;;;39.88;;
64643;SDS011;51056;50.330;7.914;2022-11-20T19:18:51;25.77;;;18.65;;
64643;SDS011;51056;50.330;7.914;2022-11-20T19:21:54;21.98;;;13.70;;
64643;SDS011;51056;50.330;7.914;2022-11-20T19:24:57;5.93;;;2.35;;
64643;SDS011;51056;50.330;7.914;2022-11-20T19:28:00;6.07;;;2.58;;
64643;SDS011;51056;50.330;7.914;2022-11-20T19:31:14;2.17;;;0.90;;
64643;SDS011;51056;50.330;7.914;2022-11-20T19:34:18;4.00;;;1.23;;
64643;SDS011;51056;50.330;7.914;2022-11-20T19:37:21;3.00;;;1.50;;
64643;SDS011;51056;50.330;7.914;2022-11-20T19:40:27;4.32;;;1.52;;
64643;SDS011;51056;50.330;7.914;2022-11-20T19:43:30;3.20;;;1.42;;
64643;SDS011;51056;50.330;7.914;2022-11-20T19:46:34;3.70;;;1.27;;
64643;SDS011;51056;50.330;7.914;2022-11-20T19:49:38;3.20;;;1.08;;
64643;SDS011;51056;50.330;7.914;2022-11-20T19:52:43;2.47;;;0.90;;
64643;SDS011;51056;50.330;7.914;2022-11-20T19:55:55;2.80;;;0.70;;
64643;SDS011;51056;50.330;7.914;2022-11-20T19:59:00;3.10;;;1.05;;
64643;SDS011;51056;50.330;7.914;2022-11-20T20:02:03;2.10;;;0.80;;
64643;SDS011;51056;50.330;7.914;2022-11-20T20:05:07;4.68;;;1.08;;
64643;SDS011;51056;50.330;7.914;2022-11-20T20:08:11;4.30;;;1.38;;
64643;SDS011;51056;50.330;7.914;2022-11-20T20:11:15;10.02;;;4.63;;
64643;SDS011;51056;50.330;7.914;2022-11-20T20:14:21;6.47;;;3.58;;
64643;SDS011;51056;50.330;7.914;2022-11-20T20:20:28;9.95;;;4.15;;
64643;SDS011;51056;50.330;7.914;2022-11-20T20:26:35;6.25;;;2.42;;
64643;SDS011;51056;50.330;7.914;2022-11-20T20:32:41;3.67;;;1.15;;
64643;SDS011;51056;50.330;7.914;2022-11-20T20:35:45;4.90;;;1.25;;
64643;SDS011;51056;50.330;7.914;2022-11-20T20:42:06;2.58;;;1.10;;
64643;SDS011;51056;50.330;7.914;2022-11-20T20:45:09;4.50;;;1.63;;
64643;SDS011;51056;50.330;7.914;2022-11-20T20:48:18;4.72;;;1.08;;
64643;SDS011;51056;50.330;7.914;2022-11-20T20:51:29;3.85;;;1.05;;
64643;SDS011;51056;50.330;7.914;2022-11-20T20:54:41;3.78;;;1.30;;
64643;SDS011;51056;50.330;7.914;2022-11-20T20:57:45;7.30;;;1.63;;
64643;SDS011;51056;50.330;7.914;2022-11-20T21:00:48;4.68;;;1.50;;
64643;SDS011;51056;50.330;7.914;2022-11-20T21:03:52;5.30;;;2.53;;
64643;SDS011;51056;50.330;7.914;2022-11-20T21:09:58;6.65;;;1.55;;
64643;SDS011;51056;50.330;7.914;2022-11-20T21:13:02;6.18;;;0.98;;
64643;SDS011;51056;50.330;7.914;2022-11-20T21:16:05;4.32;;;1.08;;
64643;SDS011;51056;50.330;7.914;2022-11-20T21:19:09;6.90;;;1.40;;
64643;SDS011;51056;50.330;7.914;2022-11-20T21:22:13;5.60;;;1.65;;
64643;SDS011;51056;50.330;7.914;2022-11-20T21:28:20;5.78;;;2.05;;